createdAt,value
2022-12-22T00:00:45.056Z,99.99
2022-12-22T00:01:49.960Z,99.99
2022-12-22T00:02:46.153Z,99.99
2022-12-22T00:03:45.087Z,99.99
2022-12-22T00:04:44.990Z,99.99
2022-12-22T00:05:44.972Z,99.99
2022-12-22T00:06:44.974Z,99.99
2022-12-22T00:07:44.977Z,99.99
2022-12-22T00:08:44.938Z,99.99
2022-12-22T00:09:44.916Z,99.99
2022-12-22T00:10:44.916Z,99.99
2022-12-22T00:11:44.918Z,99.99
2022-12-22T00:12:44.898Z,99.99
2022-12-22T00:13:44.864Z,99.99
2022-12-22T00:14:44.863Z,99.99
2022-12-22T00:15:44.842Z,99.99
2022-12-22T00:16:44.991Z,99.99
2022-12-22T00:17:44.820Z,99.99
2022-12-22T00:18:44.802Z,99.99
2022-12-22T00:19:44.802Z,99.99
2022-12-22T00:20:44.789Z,99.99
2022-12-22T00:21:44.774Z,99.99
2022-12-22T00:22:44.759Z,99.99
2022-12-22T00:23:44.750Z,99.99
2022-12-22T00:24:44.738Z,99.99
2022-12-22T00:25:44.718Z,99.99
2022-12-22T00:26:44.712Z,99.99
2022-12-22T00:27:45.781Z,99.99
2022-12-22T00:28:44.673Z,99.99
2022-12-22T00:29:44.676Z,99.99
2022-12-22T00:30:44.695Z,99.99
2022-12-22T00:31:44.658Z,99.99
2022-12-22T00:32:44.618Z,99.99
2022-12-22T00:33:44.622Z,99.99
2022-12-22T00:34:44.598Z,99.99
2022-12-22T00:35:44.611Z,99.99
2022-12-22T00:36:44.581Z,99.99
2022-12-22T00:37:44.559Z,99.99
2022-12-22T00:38:44.538Z,99.99
2022-12-22T00:39:44.552Z,99.99
2022-12-22T00:40:44.523Z,99.99
2022-12-22T00:41:44.522Z,99.99
2022-12-22T00:42:44.499Z,99.99
2022-12-22T00:43:44.480Z,99.99
2022-12-22T00:44:44.472Z,99.99
2022-12-22T00:45:44.509Z,99.99
2022-12-22T00:46:44.463Z,99.99
2022-12-22T00:47:44.432Z,99.99
2022-12-22T00:48:44.419Z,99.99
2022-12-22T00:49:44.401Z,99.99
2022-12-22T00:50:44.404Z,99.99
2022-12-22T00:51:44.398Z,99.99
2022-12-22T00:52:44.367Z,99.99
2022-12-22T00:53:44.353Z,99.99
2022-12-22T00:54:44.331Z,99.99
2022-12-22T00:55:44.328Z,99.99
2022-12-22T00:56:44.324Z,99.99
2022-12-22T00:57:44.301Z,99.99
2022-12-22T00:58:44.288Z,99.99
2022-12-22T00:59:44.299Z,99.99
2022-12-22T01:00:44.258Z,99.99
2022-12-22T01:01:44.411Z,99.99
2022-12-22T01:02:44.459Z,99.99
2022-12-22T01:03:44.312Z,99.99
2022-12-22T01:04:44.213Z,99.99
2022-12-22T01:05:44.199Z,99.99
2022-12-22T01:06:44.191Z,99.99
2022-12-22T01:07:44.185Z,99.99
2022-12-22T01:08:44.170Z,99.99
2022-12-22T01:09:44.151Z,99.99
2022-12-22T01:10:44.139Z,99.99
2022-12-22T01:11:44.255Z,99.99
2022-12-22T01:12:44.100Z,99.99
2022-12-22T01:13:44.107Z,99.99
2022-12-22T01:14:44.079Z,99.99
2022-12-22T01:15:44.088Z,99.99
2022-12-22T01:16:44.069Z,99.99
2022-12-22T01:17:44.044Z,99.99
2022-12-22T01:18:44.030Z,99.99
2022-12-22T01:19:44.036Z,99.99
2022-12-22T01:20:44.024Z,99.99
2022-12-22T01:21:44.027Z,99.99
2022-12-22T01:22:43.980Z,99.99
2022-12-22T01:23:43.972Z,99.99
2022-12-22T01:24:43.973Z,99.99
2022-12-22T01:25:43.949Z,99.99
2022-12-22T01:26:43.937Z,99.99
2022-12-22T01:27:43.912Z,99.99
2022-12-22T01:28:43.901Z,99.99
2022-12-22T01:29:43.901Z,99.99
2022-12-22T01:30:43.879Z,99.99
2022-12-22T01:31:43.864Z,99.99
2022-12-22T01:32:43.841Z,99.99
2022-12-22T01:33:43.841Z,99.99
2022-12-22T01:34:43.819Z,99.99
2022-12-22T01:35:43.831Z,99.99
2022-12-22T01:36:43.821Z,99.99
2022-12-22T01:37:43.798Z,99.99
2022-12-22T01:38:43.777Z,99.99
2022-12-22T01:39:43.759Z,99.99
2022-12-22T01:40:43.797Z,99.99
2022-12-22T01:41:43.748Z,99.99
2022-12-22T01:42:43.721Z,99.99
2022-12-22T01:43:43.711Z,99.99
2022-12-22T01:44:43.699Z,99.99
2022-12-22T01:45:43.679Z,99.99
2022-12-22T01:46:43.798Z,99.99
2022-12-22T01:47:43.650Z,99.99
2022-12-22T01:48:43.641Z,99.99
2022-12-22T01:49:43.656Z,99.99
2022-12-22T01:50:43.626Z,99.99
2022-12-22T01:51:43.624Z,99.99
2022-12-22T01:52:43.590Z,99.99
2022-12-22T01:53:43.576Z,99.99
2022-12-22T01:54:43.561Z,99.99
2022-12-22T01:55:43.589Z,99.99
2022-12-22T01:56:43.560Z,99.99
2022-12-22T01:57:43.531Z,99.99
2022-12-22T01:58:43.507Z,99.99
2022-12-22T01:59:43.589Z,99.99
2022-12-22T02:00:43.506Z,99.99
2022-12-22T02:01:43.670Z,99.99
2022-12-22T02:02:43.604Z,99.99
2022-12-22T02:03:43.505Z,99.99
2022-12-22T02:04:43.444Z,99.99
2022-12-22T02:05:43.426Z,99.99
2022-12-22T02:06:43.410Z,99.99
2022-12-22T02:07:43.393Z,99.99
2022-12-22T02:08:43.373Z,99.99
2022-12-22T02:09:43.366Z,99.99
2022-12-22T02:10:43.363Z,99.99
2022-12-22T02:11:43.371Z,99.99
2022-12-22T02:12:43.327Z,99.99
2022-12-22T02:13:43.446Z,99.99
2022-12-22T02:14:43.305Z,99.99
2022-12-22T02:15:43.380Z,99.99
2022-12-22T02:16:43.300Z,99.99
2022-12-22T02:17:43.325Z,99.99
2022-12-22T02:18:43.245Z,99.99
2022-12-22T02:19:43.258Z,99.99
2022-12-22T02:20:43.226Z,99.99
2022-12-22T02:21:43.234Z,99.99
2022-12-22T02:22:43.232Z,99.99
2022-12-22T02:23:43.184Z,99.99
2022-12-22T02:24:43.170Z,99.99
2022-12-22T02:25:43.165Z,99.99
2022-12-22T02:26:43.158Z,99.99
2022-12-22T02:27:43.149Z,99.99
2022-12-22T02:28:43.112Z,99.99
2022-12-22T02:29:43.106Z,99.99
2022-12-22T02:30:43.091Z,99.99
2022-12-22T02:31:43.169Z,99.99
2022-12-22T02:32:43.060Z,99.99
2022-12-22T02:33:43.055Z,99.99
2022-12-22T02:34:43.033Z,99.99
2022-12-22T02:35:43.026Z,99.99
2022-12-22T02:36:43.044Z,99.99
2022-12-22T02:37:43.002Z,99.99
2022-12-22T02:38:42.992Z,99.99
2022-12-22T02:39:42.981Z,99.99
2022-12-22T02:40:42.971Z,99.99
2022-12-22T02:41:42.964Z,99.99
2022-12-22T02:42:42.945Z,99.99
2022-12-22T02:43:42.931Z,99.99
2022-12-22T02:44:42.903Z,99.99
2022-12-22T02:45:42.892Z,99.99
2022-12-22T02:46:42.910Z,99.99
2022-12-22T02:47:42.879Z,99.99
2022-12-22T02:48:42.859Z,99.99
2022-12-22T02:49:42.855Z,99.99
2022-12-22T02:50:42.829Z,99.99
2022-12-22T02:51:42.826Z,99.99
2022-12-22T02:52:42.829Z,99.99
2022-12-22T02:53:42.799Z,99.99
2022-12-22T02:54:42.795Z,99.99
2022-12-22T02:55:42.812Z,99.99
2022-12-22T02:56:42.762Z,99.99
2022-12-22T02:57:42.768Z,99.99
2022-12-22T02:58:42.726Z,99.99
2022-12-22T02:59:42.717Z,99.99
2022-12-22T03:00:42.821Z,99.99
2022-12-22T03:01:42.894Z,99.99
2022-12-22T03:02:42.904Z,99.99
2022-12-22T03:03:42.879Z,99.99
2022-12-22T03:04:42.656Z,99.99
2022-12-22T03:05:42.625Z,99.99
2022-12-22T03:06:42.628Z,99.99
2022-12-22T03:07:42.726Z,99.99
2022-12-22T03:08:42.619Z,99.99
2022-12-22T03:09:42.590Z,99.99
2022-12-22T03:10:42.564Z,99.99
2022-12-22T03:11:42.569Z,99.99
2022-12-22T03:12:42.545Z,99.99
2022-12-22T03:13:42.538Z,99.99
2022-12-22T03:14:42.515Z,99.99
2022-12-22T03:15:42.596Z,99.99
2022-12-22T03:16:42.551Z,99.99
2022-12-22T03:17:42.527Z,99.99
2022-12-22T03:18:42.467Z,99.99
2022-12-22T03:19:42.456Z,99.99
2022-12-22T03:20:42.450Z,99.99
2022-12-22T03:21:42.452Z,99.99
2022-12-22T03:22:42.416Z,99.99
2022-12-22T03:23:42.405Z,99.99
2022-12-22T03:24:42.419Z,99.99
2022-12-22T03:25:42.375Z,99.99
2022-12-22T03:26:42.367Z,99.99
2022-12-22T03:27:42.376Z,99.91
2022-12-22T03:28:42.326Z,99.71
2022-12-22T03:29:42.314Z,99.51
2022-12-22T03:30:42.321Z,99.40
2022-12-22T03:31:42.399Z,99.40
2022-12-22T03:32:42.285Z,99.40
2022-12-22T03:33:42.271Z,99.30
2022-12-22T03:34:42.261Z,98.99
2022-12-22T03:35:42.241Z,98.88
2022-12-22T03:36:42.276Z,98.88
2022-12-22T03:37:42.231Z,98.79
2022-12-22T03:38:42.203Z,98.68
2022-12-22T03:39:42.199Z,98.58
2022-12-22T03:40:44.428Z,98.47
2022-12-22T03:41:42.171Z,98.37
2022-12-22T03:42:42.151Z,98.27
2022-12-22T03:43:42.148Z,98.16
2022-12-22T03:44:42.176Z,98.06
2022-12-22T03:45:42.110Z,97.96
2022-12-22T03:46:42.150Z,97.86
2022-12-22T03:47:42.083Z,97.75
2022-12-22T03:48:42.071Z,97.65
2022-12-22T03:49:42.064Z,97.65
2022-12-22T03:50:42.071Z,97.65
2022-12-22T03:51:42.072Z,97.50
2022-12-22T03:52:42.039Z,97.44
2022-12-22T03:53:42.013Z,97.30
2022-12-22T03:54:42.006Z,97.19
2022-12-22T03:55:41.969Z,97.19
2022-12-22T03:56:41.986Z,97.09
2022-12-22T03:57:41.957Z,97.09
2022-12-22T03:58:42.076Z,97.09
2022-12-22T03:59:41.935Z,97.09
2022-12-22T04:00:41.985Z,96.99
2022-12-22T04:01:42.143Z,96.89
2022-12-22T04:02:42.053Z,96.89
2022-12-22T04:03:41.905Z,96.89
2022-12-22T04:04:41.881Z,96.78
2022-12-22T04:05:41.847Z,96.78
2022-12-22T04:06:41.850Z,96.58
2022-12-22T04:07:41.835Z,96.47
2022-12-22T04:08:41.818Z,96.47
2022-12-22T04:09:41.819Z,96.47
2022-12-22T04:10:41.788Z,96.47
2022-12-22T04:11:41.794Z,96.47
2022-12-22T04:12:41.764Z,96.58
2022-12-22T04:13:41.752Z,96.47
2022-12-22T04:14:41.751Z,96.33
2022-12-22T04:15:41.712Z,96.12
2022-12-22T04:16:41.846Z,95.92
2022-12-22T04:17:41.695Z,95.92
2022-12-22T04:18:41.722Z,95.71
2022-12-22T04:19:41.663Z,95.71
2022-12-22T04:20:41.667Z,95.61
2022-12-22T04:21:41.661Z,95.61
2022-12-22T04:22:41.646Z,95.61
2022-12-22T04:23:41.633Z,95.50
2022-12-22T04:24:41.611Z,95.40
2022-12-22T04:25:41.594Z,95.30
2022-12-22T04:26:41.607Z,95.30
2022-12-22T04:27:41.556Z,95.30
2022-12-22T04:28:41.595Z,95.40
2022-12-22T04:29:41.583Z,95.40
2022-12-22T04:30:41.533Z,95.40
2022-12-22T04:31:41.539Z,95.40
2022-12-22T04:32:41.497Z,95.40
2022-12-22T04:33:41.489Z,95.40
2022-12-22T04:34:41.489Z,95.40
2022-12-22T04:35:41.480Z,95.40
2022-12-22T04:36:41.469Z,95.40
2022-12-22T04:37:41.437Z,95.50
2022-12-22T04:38:41.434Z,95.40
2022-12-22T04:39:41.403Z,95.50
2022-12-22T04:40:41.391Z,95.50
2022-12-22T04:41:41.415Z,95.61
2022-12-22T04:42:41.361Z,95.61
2022-12-22T04:43:41.360Z,95.50
2022-12-22T04:44:41.355Z,95.61
2022-12-22T04:45:41.377Z,95.50
2022-12-22T04:46:41.325Z,95.50
2022-12-22T04:47:41.311Z,95.61
2022-12-22T04:48:41.308Z,95.71
2022-12-22T04:49:41.270Z,95.81
2022-12-22T04:50:41.300Z,95.71
2022-12-22T04:51:41.262Z,95.71
2022-12-22T04:52:41.251Z,95.71
2022-12-22T04:53:42.130Z,95.71
2022-12-22T04:54:41.212Z,95.81
2022-12-22T04:55:41.191Z,95.81
2022-12-22T04:56:41.205Z,95.81
2022-12-22T04:57:41.357Z,95.92
2022-12-22T04:58:41.171Z,95.92
2022-12-22T04:59:41.154Z,95.92
2022-12-22T05:00:41.135Z,95.92
2022-12-22T05:01:41.340Z,95.92
2022-12-22T05:02:41.275Z,95.92
2022-12-22T05:03:41.154Z,95.81
2022-12-22T05:04:41.087Z,95.81
2022-12-22T05:05:41.071Z,96.02
2022-12-22T05:06:41.060Z,96.12
2022-12-22T05:07:41.038Z,96.22
2022-12-22T05:08:41.027Z,96.12
2022-12-22T05:09:41.035Z,96.12
2022-12-22T05:10:41.029Z,96.02
2022-12-22T05:11:40.989Z,96.12
2022-12-22T05:12:40.994Z,96.22
2022-12-22T05:13:40.965Z,96.22
2022-12-22T05:14:40.951Z,96.02
2022-12-22T05:15:40.935Z,96.02
2022-12-22T05:16:41.001Z,96.12
2022-12-22T05:17:40.907Z,96.02
2022-12-22T05:18:40.915Z,95.92
2022-12-22T05:19:40.870Z,96.06
2022-12-22T05:20:40.890Z,96.12
2022-12-22T05:21:40.891Z,96.17
2022-12-22T05:22:40.840Z,96.06
2022-12-22T05:23:40.837Z,96.06
2022-12-22T05:24:40.824Z,96.06
2022-12-22T05:25:40.808Z,96.06
2022-12-22T05:26:40.801Z,96.06
2022-12-22T05:27:40.776Z,96.06
2022-12-22T05:28:40.775Z,95.81
2022-12-22T05:29:40.753Z,95.61
2022-12-22T05:30:40.845Z,95.61
2022-12-22T05:31:46.761Z,95.50
2022-12-22T05:32:42.116Z,95.50
2022-12-22T05:33:40.698Z,95.50
2022-12-22T05:34:40.687Z,95.50
2022-12-22T05:35:40.660Z,95.50
2022-12-22T05:36:40.670Z,95.40
2022-12-22T05:37:40.646Z,95.40
2022-12-22T05:38:40.636Z,95.40
2022-12-22T05:39:40.631Z,95.40
2022-12-22T05:40:40.626Z,95.40
2022-12-22T05:41:40.600Z,95.40
2022-12-22T05:42:40.575Z,95.50
2022-12-22T05:43:40.572Z,95.61
2022-12-22T05:44:40.557Z,95.30
2022-12-22T05:45:40.652Z,95.20
2022-12-22T05:46:40.587Z,95.20
2022-12-22T05:47:40.511Z,95.30
2022-12-22T05:48:40.571Z,95.30
2022-12-22T05:49:40.494Z,95.40
2022-12-22T05:50:40.473Z,95.30
2022-12-22T05:51:40.466Z,95.30
2022-12-22T05:52:40.448Z,95.40
2022-12-22T05:53:40.463Z,95.40
2022-12-22T05:54:40.438Z,95.30
2022-12-22T05:55:40.404Z,95.50
2022-12-22T05:56:40.427Z,95.61
2022-12-22T05:57:40.373Z,95.71
2022-12-22T05:58:40.704Z,95.71
2022-12-22T05:59:40.354Z,95.71
2022-12-22T06:00:40.690Z,95.92
2022-12-22T06:01:40.552Z,95.92
2022-12-22T06:02:40.483Z,96.02
2022-12-22T06:03:40.400Z,96.22
2022-12-22T06:04:40.301Z,96.33
2022-12-22T06:05:40.288Z,96.43
2022-12-22T06:06:40.275Z,96.43
2022-12-22T06:07:40.253Z,96.53
2022-12-22T06:08:40.232Z,96.53
2022-12-22T06:09:40.246Z,96.53
2022-12-22T06:10:40.234Z,96.64
2022-12-22T06:11:40.200Z,96.64
2022-12-22T06:12:40.226Z,96.73
2022-12-22T06:13:40.184Z,96.64
2022-12-22T06:14:40.171Z,96.64
2022-12-22T06:15:40.191Z,96.84
2022-12-22T06:16:40.201Z,96.94
2022-12-22T06:17:44.611Z,97.05
2022-12-22T06:18:41.109Z,96.84
2022-12-22T06:19:40.089Z,96.84
2022-12-22T06:20:40.096Z,96.84
2022-12-22T06:21:40.075Z,96.94
2022-12-22T06:22:40.058Z,96.84
2022-12-22T06:23:40.045Z,96.84
2022-12-22T06:24:40.038Z,96.84
2022-12-22T06:25:40.030Z,96.73
2022-12-22T06:26:40.040Z,96.64
2022-12-22T06:27:40.025Z,96.48
2022-12-22T06:28:40.021Z,96.18
2022-12-22T06:29:39.973Z,96.22
2022-12-22T06:30:39.951Z,96.33
2022-12-22T06:31:40.026Z,96.22
2022-12-22T06:32:40.063Z,96.22
2022-12-22T06:33:39.925Z,96.18
2022-12-22T06:34:39.897Z,96.08
2022-12-22T06:35:39.896Z,95.77
2022-12-22T06:36:39.895Z,95.77
2022-12-22T06:37:39.884Z,95.87
2022-12-22T06:38:39.851Z,95.77
2022-12-22T06:39:39.837Z,95.87
2022-12-22T06:40:39.859Z,95.87
2022-12-22T06:41:39.826Z,95.77
2022-12-22T06:42:39.805Z,95.77
2022-12-22T06:43:39.812Z,95.77
2022-12-22T06:44:39.852Z,95.77
2022-12-22T06:45:39.800Z,95.87
2022-12-22T06:46:39.790Z,95.77
2022-12-22T06:47:39.740Z,95.77
2022-12-22T06:48:39.707Z,95.87
2022-12-22T06:49:39.698Z,95.77
2022-12-22T06:50:39.698Z,95.56
2022-12-22T06:51:39.681Z,95.67
2022-12-22T06:52:39.697Z,95.87
2022-12-22T06:53:39.648Z,95.87
2022-12-22T06:54:39.656Z,95.77
2022-12-22T06:55:39.633Z,95.77
2022-12-22T06:56:39.629Z,95.67
2022-12-22T06:57:39.601Z,95.67
2022-12-22T06:58:39.588Z,95.77
2022-12-22T06:59:39.570Z,95.67
2022-12-22T07:00:39.556Z,95.56
2022-12-22T07:01:39.650Z,95.56
2022-12-22T07:02:39.786Z,95.46
2022-12-22T07:03:39.555Z,95.67
2022-12-22T07:04:39.510Z,95.67
2022-12-22T07:05:39.519Z,95.56
2022-12-22T07:06:39.549Z,95.42
2022-12-22T07:07:39.488Z,95.21
2022-12-22T07:08:39.469Z,95.21
2022-12-22T07:09:39.446Z,95.21
2022-12-22T07:10:39.460Z,95.01
2022-12-22T07:11:39.435Z,95.10
2022-12-22T07:12:39.396Z,95.10
2022-12-22T07:13:39.393Z,95.01
2022-12-22T07:14:39.384Z,95.10
2022-12-22T07:15:39.388Z,95.10
2022-12-22T07:16:39.425Z,95.10
2022-12-22T07:17:39.335Z,95.21
2022-12-22T07:18:39.334Z,95.21
2022-12-22T07:19:39.309Z,95.21
2022-12-22T07:20:39.294Z,95.10
2022-12-22T07:21:39.316Z,95.21
2022-12-22T07:22:39.283Z,95.10
2022-12-22T07:23:39.254Z,95.21
2022-12-22T07:24:39.252Z,95.42
2022-12-22T07:25:39.241Z,95.52
2022-12-22T07:26:39.253Z,95.42
2022-12-22T07:27:39.603Z,95.52
2022-12-22T07:28:39.187Z,95.52
2022-12-22T07:29:39.189Z,95.52
2022-12-22T07:30:39.167Z,95.62
2022-12-22T07:31:39.230Z,95.62
2022-12-22T07:32:39.146Z,95.62
2022-12-22T07:33:39.132Z,95.52
2022-12-22T07:34:39.138Z,95.42
2022-12-22T07:35:39.092Z,95.62
2022-12-22T07:36:39.100Z,95.83
2022-12-22T07:37:39.073Z,95.72
2022-12-22T07:38:39.057Z,95.83
2022-12-22T07:39:39.067Z,95.83
2022-12-22T07:40:42.118Z,95.93
2022-12-22T07:41:39.020Z,96.03
2022-12-22T07:42:39.008Z,95.93
2022-12-22T07:43:38.980Z,96.14
2022-12-22T07:44:38.975Z,96.44
2022-12-22T07:45:38.960Z,96.44
2022-12-22T07:46:39.056Z,96.44
2022-12-22T07:47:38.935Z,96.55
2022-12-22T07:48:38.929Z,96.65
2022-12-22T07:49:38.899Z,96.65
2022-12-22T07:50:38.906Z,96.65
2022-12-22T07:51:38.914Z,96.65
2022-12-22T07:52:38.879Z,96.85
2022-12-22T07:53:38.869Z,96.95
2022-12-22T07:54:42.020Z,97.27
2022-12-22T07:55:38.829Z,97.37
2022-12-22T07:56:38.841Z,97.27
2022-12-22T07:57:38.808Z,97.27
2022-12-22T07:58:38.818Z,97.16
2022-12-22T07:59:38.767Z,97.47
2022-12-22T08:00:38.776Z,97.47
2022-12-22T08:01:38.916Z,97.47
2022-12-22T08:02:39.508Z,97.57
2022-12-22T08:03:38.719Z,97.57
2022-12-22T08:04:38.761Z,97.88
2022-12-22T08:05:38.742Z,97.88
2022-12-22T08:06:38.701Z,97.88
2022-12-22T08:07:38.672Z,97.88
2022-12-22T08:08:38.659Z,97.99
2022-12-22T08:09:38.659Z,98.08
2022-12-22T08:10:38.635Z,98.08
2022-12-22T08:11:38.638Z,98.08
2022-12-22T08:12:38.649Z,98.19
2022-12-22T08:13:38.596Z,98.29
2022-12-22T08:14:38.590Z,98.29
2022-12-22T08:15:38.594Z,98.39
2022-12-22T08:16:38.652Z,98.39
2022-12-22T08:17:38.544Z,98.50
2022-12-22T08:18:38.530Z,98.60
2022-12-22T08:19:38.523Z,98.60
2022-12-22T08:20:38.504Z,98.70
2022-12-22T08:21:39.609Z,98.80
2022-12-22T08:22:38.483Z,98.80
2022-12-22T08:23:38.463Z,98.80
2022-12-22T08:24:38.450Z,98.80
2022-12-22T08:25:38.445Z,98.91
2022-12-22T08:26:38.437Z,98.80
2022-12-22T08:27:38.414Z,98.70
2022-12-22T08:28:38.402Z,98.70
2022-12-22T08:29:38.399Z,98.91
2022-12-22T08:30:38.376Z,99.01
2022-12-22T08:31:38.433Z,99.01
2022-12-22T08:32:38.352Z,99.11
2022-12-22T08:33:38.763Z,99.01
2022-12-22T08:34:38.333Z,99.01
2022-12-22T08:35:38.327Z,99.01
2022-12-22T08:36:38.318Z,99.11
2022-12-22T08:37:38.277Z,99.42
2022-12-22T08:38:38.267Z,99.42
2022-12-22T08:39:38.271Z,99.42
2022-12-22T08:40:38.238Z,99.32
2022-12-22T08:41:38.231Z,99.21
2022-12-22T08:42:38.213Z,99.11
2022-12-22T08:43:38.218Z,99.11
2022-12-22T08:44:38.190Z,99.32
2022-12-22T08:45:38.176Z,99.32
2022-12-22T08:46:38.214Z,99.42
2022-12-22T08:47:38.240Z,99.42
2022-12-22T08:48:38.143Z,99.42
2022-12-22T08:49:38.121Z,99.21
2022-12-22T08:50:38.124Z,99.38
2022-12-22T08:51:38.121Z,99.48
2022-12-22T08:52:38.080Z,99.48
2022-12-22T08:54:04.035Z,99.38
2022-12-22T08:54:39.062Z,99.27
2022-12-22T08:55:38.057Z,99.27
2022-12-22T08:56:38.043Z,99.17
2022-12-22T08:57:38.045Z,99.07
2022-12-22T08:58:38.004Z,99.17
2022-12-22T09:00:23.243Z,99.38
2022-12-22T09:00:38.011Z,99.48
2022-12-22T09:01:38.123Z,99.48
2022-12-22T09:02:38.086Z,99.48
2022-12-22T09:03:37.941Z,99.58
2022-12-22T09:04:37.941Z,99.58
2022-12-22T09:05:37.922Z,99.58
2022-12-22T09:06:41.233Z,99.58
2022-12-22T09:07:37.889Z,99.68
2022-12-22T09:08:37.874Z,99.68
2022-12-22T09:09:37.868Z,99.68
2022-12-22T09:10:37.860Z,99.68
2022-12-22T09:11:37.872Z,99.68
2022-12-22T09:12:37.830Z,99.63
2022-12-22T09:13:37.810Z,99.54
2022-12-22T09:14:37.856Z,99.54
2022-12-22T09:15:37.789Z,99.43
2022-12-22T09:16:37.838Z,99.43
2022-12-22T09:17:37.778Z,99.43
2022-12-22T09:18:37.754Z,99.33
2022-12-22T09:19:37.738Z,99.33
2022-12-22T09:20:37.707Z,99.22
2022-12-22T09:21:37.728Z,99.22
2022-12-22T09:22:37.688Z,99.22
2022-12-22T09:23:37.676Z,99.12
2022-12-22T09:24:37.671Z,99.02
2022-12-22T09:25:37.646Z,99.02
2022-12-22T09:26:37.657Z,99.02
2022-12-22T09:27:37.642Z,99.02
2022-12-22T09:28:40.103Z,98.92
2022-12-22T09:29:37.602Z,98.82
2022-12-22T09:30:37.589Z,98.82
2022-12-22T09:31:37.700Z,98.71
2022-12-22T09:32:37.572Z,98.57
2022-12-22T09:33:37.549Z,98.46
2022-12-22T09:34:37.529Z,98.36
2022-12-22T09:35:37.524Z,98.36
2022-12-22T09:36:37.506Z,98.36
2022-12-22T09:37:37.487Z,98.25
2022-12-22T09:38:37.493Z,98.25
2022-12-22T09:39:37.462Z,98.16
2022-12-22T09:40:37.437Z,98.16
2022-12-22T09:41:37.501Z,98.16
2022-12-22T09:42:37.419Z,98.11
2022-12-22T09:43:37.409Z,97.91
2022-12-22T09:44:37.389Z,97.70
2022-12-22T09:45:37.411Z,97.60
2022-12-22T09:46:37.414Z,97.29
2022-12-22T09:47:37.391Z,97.29
2022-12-22T09:48:39.874Z,96.98
2022-12-22T09:49:38.917Z,96.78
2022-12-22T09:50:37.315Z,96.67
2022-12-22T09:51:37.331Z,96.57
2022-12-22T09:52:37.299Z,96.67
2022-12-22T09:53:37.283Z,96.67
2022-12-22T09:54:37.266Z,96.57
2022-12-22T09:55:37.254Z,96.67
2022-12-22T09:56:37.267Z,96.67
2022-12-22T09:57:37.230Z,96.63
2022-12-22T09:58:37.212Z,96.22
2022-12-22T09:59:37.209Z,95.81
2022-12-22T10:00:58.261Z,96.01
2022-12-22T10:01:37.304Z,96.22
2022-12-22T10:02:37.250Z,96.22
2022-12-22T10:03:37.198Z,96.22
2022-12-22T10:04:37.143Z,96.22
2022-12-22T10:05:37.125Z,96.12
2022-12-22T10:06:37.125Z,95.25
2022-12-22T10:07:37.080Z,95.15
2022-12-22T10:08:37.088Z,95.56
2022-12-22T10:09:52.513Z,95.46
2022-12-22T10:10:38.052Z,95.46
2022-12-22T10:11:37.051Z,95.25
2022-12-22T10:12:37.024Z,95.15
2022-12-22T10:13:37.012Z,95.15
2022-12-22T10:14:36.994Z,95.15
2022-12-22T10:15:36.987Z,95.31
2022-12-22T10:16:37.062Z,94.90
2022-12-22T10:17:36.965Z,94.80
2022-12-22T10:18:36.943Z,94.80
2022-12-22T10:19:36.925Z,94.90
2022-12-22T10:20:36.925Z,94.70
2022-12-22T10:21:39.847Z,94.59
2022-12-22T10:22:37.911Z,94.18
2022-12-22T10:23:36.881Z,93.73
2022-12-22T10:24:36.887Z,93.43
2022-12-22T10:26:16.985Z,93.32
2022-12-22T10:26:37.852Z,93.12
2022-12-22T10:27:41.924Z,93.01
2022-12-22T10:28:37.821Z,93.32
2022-12-22T10:29:36.794Z,93.22
2022-12-22T10:30:36.796Z,93.01
2022-12-22T10:31:37.000Z,92.91
2022-12-22T10:32:36.761Z,92.60
2022-12-22T10:33:41.217Z,93.01
2022-12-22T10:34:37.765Z,93.12
2022-12-22T10:35:36.731Z,93.12
2022-12-22T10:36:36.732Z,93.43
2022-12-22T10:37:36.706Z,93.12
2022-12-22T10:38:36.700Z,93.22
2022-12-22T10:39:36.680Z,93.22
2022-12-22T10:40:36.657Z,93.32
2022-12-22T10:41:36.660Z,93.22
2022-12-22T10:42:36.644Z,93.12
2022-12-22T10:43:36.628Z,93.32
2022-12-22T10:44:36.600Z,93.12
2022-12-22T10:45:36.619Z,92.91
2022-12-22T10:46:36.716Z,92.91
2022-12-22T10:47:36.571Z,93.01
2022-12-22T10:48:36.563Z,93.12
2022-12-22T10:50:10.875Z,93.32
2022-12-22T10:51:10.852Z,93.22
2022-12-22T10:52:10.838Z,93.32
2022-12-22T10:53:10.809Z,93.52
2022-12-22T10:54:10.820Z,93.22
2022-12-22T10:55:10.804Z,92.81
2022-12-22T10:56:10.806Z,92.81
2022-12-22T10:57:10.771Z,92.91
2022-12-22T10:58:10.768Z,92.60
2022-12-22T10:59:10.765Z,92.81
2022-12-22T11:00:10.741Z,93.12
2022-12-22T11:01:10.761Z,93.12
2022-12-22T11:02:11.031Z,93.01
2022-12-22T11:03:10.831Z,93.01
2022-12-22T11:04:10.776Z,93.12
2022-12-22T11:05:10.680Z,92.91
2022-12-22T11:06:10.678Z,92.60
2022-12-22T11:07:10.630Z,92.50
2022-12-22T11:08:10.621Z,92.71
2022-12-22T11:09:32.461Z,92.71
2022-12-22T11:10:11.617Z,92.50
2022-12-22T11:11:10.587Z,92.60
2022-12-22T11:12:10.578Z,92.60
2022-12-22T11:13:10.544Z,92.77
2022-12-22T11:14:10.554Z,92.77
2022-12-22T11:15:10.528Z,92.66
2022-12-22T11:16:10.604Z,92.56
2022-12-22T11:17:10.573Z,92.36
2022-12-22T11:18:10.494Z,92.36
2022-12-22T11:19:10.478Z,92.25
2022-12-22T11:20:10.605Z,92.36
2022-12-22T11:21:10.477Z,92.46
2022-12-22T11:22:10.437Z,92.36
2022-12-22T11:23:10.427Z,92.36
2022-12-22T11:24:10.442Z,92.25
2022-12-22T11:25:10.399Z,92.25
2022-12-22T11:26:10.455Z,92.05
2022-12-22T11:27:10.400Z,92.15
2022-12-22T11:28:10.363Z,92.05
2022-12-22T11:29:10.366Z,92.01
2022-12-22T11:30:10.323Z,91.91
2022-12-22T11:31:10.381Z,91.91
2022-12-22T11:32:10.312Z,91.80
2022-12-22T11:33:10.292Z,91.39
2022-12-22T11:34:13.280Z,91.80
2022-12-22T11:35:11.276Z,91.91
2022-12-22T11:36:10.269Z,91.80
2022-12-22T11:37:10.237Z,91.80
2022-12-22T11:38:10.248Z,91.91
2022-12-22T11:39:10.219Z,91.91
2022-12-22T11:40:10.193Z,91.91
2022-12-22T11:41:10.209Z,91.70
2022-12-22T11:42:10.174Z,91.50
2022-12-22T11:43:10.605Z,91.50
2022-12-22T11:44:10.161Z,91.60
2022-12-22T11:45:10.142Z,91.39
2022-12-22T11:46:10.174Z,91.39
2022-12-22T11:47:10.109Z,91.15
2022-12-22T11:48:10.119Z,91.05
2022-12-22T11:49:10.123Z,90.94
2022-12-22T11:50:57.523Z,90.84
2022-12-22T11:51:12.779Z,90.53
2022-12-22T11:52:10.059Z,90.64
2022-12-22T11:53:10.049Z,90.64
2022-12-22T11:54:12.016Z,90.64
2022-12-22T11:55:10.013Z,90.74
2022-12-22T11:56:10.006Z,90.74
2022-12-22T11:57:10.032Z,90.74
2022-12-22T11:58:10.008Z,90.84
2022-12-22T11:59:10.112Z,90.74
2022-12-22T12:00:09.924Z,90.84
2022-12-22T12:01:16.588Z,90.64
2022-12-22T12:02:11.077Z,90.43
2022-12-22T12:03:10.100Z,90.43
2022-12-22T12:04:09.996Z,90.43
2022-12-22T12:05:09.866Z,90.64
2022-12-22T12:06:10.057Z,90.64
2022-12-22T12:07:10.002Z,90.64
2022-12-22T12:08:09.860Z,90.53
2022-12-22T12:09:09.807Z,90.64
2022-12-22T12:10:09.930Z,90.23
2022-12-22T12:11:10.261Z,90.23
2022-12-22T12:12:09.770Z,90.33
2022-12-22T12:13:09.747Z,90.43
2022-12-22T12:14:09.756Z,90.43
2022-12-22T12:15:10.510Z,90.33
2022-12-22T12:16:10.822Z,89.98
2022-12-22T12:17:09.712Z,89.98
2022-12-22T12:18:09.749Z,89.78
2022-12-22T12:19:09.682Z,89.67
2022-12-22T12:20:09.669Z,89.58
2022-12-22T12:21:09.662Z,89.58
2022-12-22T12:22:09.653Z,89.58
2022-12-22T12:23:09.619Z,89.67
2022-12-22T12:24:09.612Z,89.67
2022-12-22T12:25:09.596Z,89.58
2022-12-22T12:26:09.602Z,89.78
2022-12-22T12:27:09.563Z,89.78
2022-12-22T12:28:09.553Z,89.26
2022-12-22T12:29:09.531Z,89.26
2022-12-22T12:31:10.565Z,89.17
2022-12-22T12:32:09.586Z,89.37
2022-12-22T12:33:09.488Z,89.47
2022-12-22T12:34:09.477Z,89.58
2022-12-22T12:35:09.473Z,89.47
2022-12-22T12:36:09.484Z,89.37
2022-12-22T12:37:09.427Z,89.02
2022-12-22T12:38:20.530Z,89.32
2022-12-22T12:39:10.409Z,89.12
2022-12-22T12:40:09.517Z,88.41
2022-12-22T12:41:09.398Z,88.47
2022-12-22T12:42:09.367Z,88.57
2022-12-22T12:43:15.847Z,88.47
2022-12-22T12:44:10.347Z,88.06
2022-12-22T12:45:09.332Z,87.65
2022-12-22T12:46:09.351Z,86.94
2022-12-22T12:47:09.365Z,87.14
2022-12-22T12:48:09.288Z,86.73
2022-12-22T12:49:09.270Z,86.53
2022-12-22T12:50:09.352Z,86.63
2022-12-22T12:51:09.262Z,86.63
2022-12-22T12:52:09.298Z,86.63
2022-12-22T12:53:09.247Z,86.63
2022-12-22T12:54:09.207Z,86.73